Time;durP1;ratioP1;P1;durP2;ratioP2;P2;SDS_P1;SDS_P2;PMS_P1;PMS_P2;Temp;Humidity;BMP_temperature;BMP_pressure;BME280_temperature;BME280_humidity;BME280_pressure;Samples;Min_cycle;Max_cycle;Signal;HPM_P1;HPM_P2
2023/04/24 00:00:22;;;;;;;2.40;2.20;;;10.10;99.90;;;;;;5044238;28;20505;-58
2023/04/24 00:02:48;;;;;;;4.35;2.78;;;10.10;99.90;;;;;;5053609;28;20379;-58
2023/04/24 00:05:15;;;;;;;3.30;3.00;;;10.10;99.90;;;;;;5053139;28;20051;-58
2023/04/24 00:07:41;;;;;;;3.58;2.88;;;10.00;99.90;;;;;;5058574;28;20082;-59
2023/04/24 00:10:08;;;;;;;4.43;3.38;;;10.00;99.90;;;;;;5059310;28;20079;-57
2023/04/24 00:12:34;;;;;;;4.57;3.63;;;10.00;99.90;;;;;;5058691;28;20035;-59
2023/04/24 00:15:00;;;;;;;6.22;3.80;;;10.00;99.90;;;;;;5062913;28;20029;-59
2023/04/24 00:17:26;;;;;;;3.55;3.25;;;9.90;99.90;;;;;;5059582;28;20099;-57
2023/04/24 00:19:57;;;;;;;4.38;3.97;;;9.90;99.90;;;;;;5057084;28;20056;-58
2023/04/24 00:22:27;;;;;;;3.58;2.83;;;9.90;99.90;;;;;;5059715;28;20428;-58
2023/04/24 00:24:52;;;;;;;4.97;3.55;;;9.80;99.90;;;;;;5056693;28;20556;-58
2023/04/24 00:27:18;;;;;;;4.72;3.85;;;9.80;99.90;;;;;;5058221;28;20044;-58
2023/04/24 00:29:44;;;;;;;4.15;3.60;;;9.80;99.90;;;;;;5059900;28;20406;-58
2023/04/24 00:32:09;;;;;;;4.13;3.72;;;9.80;99.90;;;;;;5059343;28;20194;-58
2023/04/24 00:34:35;;;;;;;6.25;4.10;;;9.80;99.90;;;;;;5057897;28;20178;-59
2023/04/24 00:37:00;;;;;;;4.55;4.15;;;9.80;99.90;;;;;;5040643;28;20021;-60
2023/04/24 00:39:26;;;;;;;3.65;3.35;;;9.80;99.90;;;;;;5059731;28;20032;-58
2023/04/24 00:41:53;;;;;;;5.13;3.47;;;9.80;99.90;;;;;;5058120;28;20033;-59
2023/04/24 00:44:18;;;;;;;4.35;3.53;;;9.90;99.90;;;;;;5057823;28;20040;-58
2023/04/24 00:46:45;;;;;;;4.40;4.00;;;10.00;99.90;;;;;;5057490;28;20016;-59
2023/04/24 00:49:12;;;;;;;10.25;3.60;;;10.00;99.90;;;;;;5060005;28;20854;-58
2023/04/24 00:51:37;;;;;;;4.40;3.65;;;10.00;99.90;;;;;;5058018;28;20032;-58
2023/04/24 00:54:03;;;;;;;6.85;4.25;;;9.90;99.90;;;;;;5057718;28;20040;-58
2023/04/24 00:56:29;;;;;;;3.92;3.50;;;9.90;99.90;;;;;;5048387;28;20047;-57
2023/04/24 00:58:55;;;;;;;7.30;4.57;;;9.90;99.90;;;;;;5054927;28;20033;-57
2023/04/24 01:01:22;;;;;;;4.32;3.92;;;9.80;99.90;;;;;;5058181;28;20420;-58
2023/04/24 01:03:52;;;;;;;4.35;3.95;;;9.80;99.90;;;;;;5065373;28;20033;-58
2023/04/24 01:06:19;;;;;;;3.88;3.50;;;9.80;99.90;;;;;;5056418;28;20039;-58
2023/04/24 01:08:47;;;;;;;4.45;4.05;;;9.80;99.90;;;;;;5057947;28;20041;-58
2023/04/24 01:11:14;;;;;;;7.78;3.40;;;9.70;99.90;;;;;;5058788;28;20036;-58
2023/04/24 01:13:40;;;;;;;3.13;2.83;;;9.70;99.90;;;;;;5062977;28;20028;-58
2023/04/24 01:16:05;;;;;;;3.10;2.80;;;9.60;99.90;;;;;;5058999;28;20108;-57
2023/04/24 01:18:32;;;;;;;5.50;3.10;;;9.60;99.90;;;;;;5056560;28;20459;-58
2023/04/24 01:20:59;;;;;;;3.75;3.22;;;9.60;99.90;;;;;;5057681;28;20377;-58
2023/04/24 01:23:26;;;;;;;4.18;3.08;;;9.60;99.90;;;;;;5056451;28;20040;-57
2023/04/24 01:25:52;;;;;;;5.50;3.35;;;9.60;99.90;;;;;;5059116;28;20028;-58
2023/04/24 01:28:18;;;;;;;4.50;3.95;;;9.60;99.90;;;;;;5060702;28;20039;-59
2023/04/24 01:30:45;;;;;;;4.13;3.50;;;9.60;99.90;;;;;;5057209;28;20026;-57
2023/04/24 01:33:11;;;;;;;3.47;3.10;;;9.60;99.90;;;;;;5059324;28;20043;-57
2023/04/24 01:35:37;;;;;;;4.95;3.28;;;9.70;99.90;;;;;;5058083;28;20116;-58
2023/04/24 01:38:04;;;;;;;3.85;3.00;;;9.70;99.90;;;;;;5057380;28;20041;-58
2023/04/24 01:40:30;;;;;;;6.47;3.42;;;9.80;99.90;;;;;;5059760;28;20025;-58
2023/04/24 01:42:56;;;;;;;3.45;3.15;;;9.80;99.90;;;;;;5056778;28;20045;-59
2023/04/24 01:45:22;;;;;;;5.10;3.20;;;9.70;99.90;;;;;;5057188;28;20116;-59
2023/04/24 01:47:49;;;;;;;8.07;3.20;;;9.80;99.90;;;;;;5059013;28;20568;-57
2023/04/24 01:50:15;;;;;;;4.50;3.30;;;9.70;99.90;;;;;;5055622;28;20048;-59
2023/04/24 01:52:40;;;;;;;4.22;2.63;;;9.80;99.90;;;;;;5057339;28;20401;-58
2023/04/24 01:55:06;;;;;;;4.35;3.13;;;9.80;99.90;;;;;;5060043;28;20944;-57
2023/04/24 01:57:33;;;;;;;3.00;2.75;;;9.80;99.90;;;;;;5059029;28;20025;-57
2023/04/24 01:59:59;;;;;;;2.90;2.60;;;9.80;99.90;;;;;;5058145;28;20021;-58
2023/04/24 02:02:27;;;;;;;3.40;2.72;;;9.80;99.90;;;;;;5060250;28;20137;-57
2023/04/24 02:04:54;;;;;;;3.65;2.55;;;9.90;99.90;;;;;;5057021;28;20032;-59
2023/04/24 02:07:20;;;;;;;4.03;2.50;;;9.80;99.90;;;;;;5041901;28;20025;-57
2023/04/24 02:09:45;;;;;;;5.43;2.90;;;9.70;99.90;;;;;;5055271;28;20040;-58
2023/04/24 02:12:11;;;;;;;4.10;2.67;;;9.70;99.90;;;;;;5059577;28;20040;-58
2023/04/24 02:14:37;;;;;;;4.00;2.60;;;9.60;99.90;;;;;;5056980;28;20052;-59
2023/04/24 02:17:02;;;;;;;3.08;2.78;;;9.60;99.90;;;;;;5053551;28;20039;-58
2023/04/24 02:19:28;;;;;;;6.82;2.75;;;9.50;99.90;;;;;;5057171;28;20025;-59
2023/04/24 02:21:54;;;;;;;5.85;3.10;;;9.50;99.90;;;;;;5056382;28;20374;-57
2023/04/24 02:24:19;;;;;;;4.43;2.67;;;9.50;99.90;;;;;;5058802;28;20079;-58
2023/04/24 02:26:45;;;;;;;3.67;3.03;;;9.40;99.90;;;;;;5057608;28;20595;-57
2023/04/24 02:29:11;;;;;;;3.72;2.67;;;9.40;99.90;;;;;;5051016;28;20507;-58
2023/04/24 02:31:36;;;;;;;2.47;2.28;;;9.40;99.90;;;;;;5055566;28;20559;-57
2023/04/24 02:34:02;;;;;;;3.30;3.00;;;9.40;99.90;;;;;;5058902;28;20032;-59
2023/04/24 02:36:27;;;;;;;6.00;2.97;;;9.40;99.90;;;;;;5055855;28;20112;-58
2023/04/24 02:38:53;;;;;;;3.38;2.90;;;9.40;99.90;;;;;;5058338;28;20091;-57
2023/04/24 02:41:19;;;;;;;6.88;2.95;;;9.40;99.90;;;;;;5057953;28;20044;-58
2023/04/24 02:43:45;;;;;;;3.90;2.95;;;9.40;99.90;;;;;;5055139;28;20025;-58
2023/04/24 02:46:11;;;;;;;5.13;3.95;;;9.50;99.90;;;;;;5058286;28;20029;-57
2023/04/24 02:48:36;;;;;;;4.60;3.08;;;9.50;99.90;;;;;;5055389;28;20028;-58
2023/04/24 02:51:02;;;;;;;4.60;3.80;;;9.50;99.90;;;;;;5055920;28;20238;-57
2023/04/24 02:53:29;;;;;;;4.90;3.75;;;9.60;99.90;;;;;;5056530;28;20036;-57
2023/04/24 02:55:55;;;;;;;8.52;3.30;;;9.60;99.90;;;;;;5056472;28;20481;-57
2023/04/24 02:58:20;;;;;;;4.38;3.75;;;9.60;99.90;;;;;;5056270;28;20052;-57
2023/04/24 03:00:47;;;;;;;5.65;4.45;;;9.70;99.90;;;;;;5056346;28;20516;-58
2023/04/24 03:03:12;;;;;;;5.07;3.47;;;9.70;99.90;;;;;;5038834;28;20029;-58
2023/04/24 03:05:39;;;;;;;5.57;4.07;;;9.70;99.90;;;;;;5046070;28;20967;-59
2023/04/24 03:08:04;;;;;;;8.02;3.72;;;9.70;99.90;;;;;;5055351;28;20029;-58
2023/04/24 03:10:30;;;;;;;3.60;3.30;;;9.60;99.90;;;;;;5055021;28;20017;-57
2023/04/24 03:12:56;;;;;;;4.63;3.22;;;9.70;99.90;;;;;;5056724;28;20017;-58
2023/04/24 03:15:21;;;;;;;4.00;3.35;;;9.60;99.90;;;;;;5057094;28;20485;-59
2023/04/24 03:17:47;;;;;;;4.55;3.85;;;9.60;99.90;;;;;;5056852;28;20741;-58
2023/04/24 03:20:13;;;;;;;3.58;3.22;;;9.60;99.90;;;;;;5055127;28;20139;-58
2023/04/24 03:22:39;;;;;;;3.97;3.58;;;9.60;99.90;;;;;;5057112;28;20047;-58
2023/04/24 03:25:05;;;;;;;6.60;3.55;;;9.60;99.90;;;;;;5057773;28;20600;-59
2023/04/24 03:27:31;;;;;;;5.03;4.20;;;9.50;99.90;;;;;;5054683;28;20075;-58
2023/04/24 03:29:57;;;;;;;6.75;4.13;;;9.50;99.90;;;;;;5055968;28;20386;-57
2023/04/24 03:32:22;;;;;;;4.68;4.28;;;9.50;99.90;;;;;;5056090;28;20060;-58
2023/04/24 03:34:49;;;;;;;6.60;4.22;;;9.50;99.90;;;;;;5058733;28;20025;-57
2023/04/24 03:37:18;;;;;;;5.35;3.85;;;9.50;99.90;;;;;;5055910;28;20025;-58
2023/04/24 03:39:44;;;;;;;5.10;4.63;;;9.50;99.90;;;;;;5055637;28;20036;-57
2023/04/24 03:42:09;;;;;;;6.10;5.43;;;9.40;99.90;;;;;;5056896;28;20026;-58
2023/04/24 03:44:35;;;;;;;8.70;5.03;;;9.40;99.90;;;;;;5059504;28;20020;-58
2023/04/24 03:47:01;;;;;;;9.73;6.40;;;9.40;99.90;;;;;;5056831;28;20040;-59
2023/04/24 03:49:27;;;;;;;6.80;6.20;;;9.40;99.90;;;;;;5059554;28;20025;-57
2023/04/24 03:51:52;;;;;;;14.80;6.57;;;9.40;99.90;;;;;;5056631;28;20059;-58
2023/04/24 03:54:19;;;;;;;7.47;6.70;;;9.40;99.90;;;;;;5056652;28;20028;-57
2023/04/24 03:56:44;;;;;;;7.93;6.65;;;9.40;99.90;;;;;;5055479;28;20039;-58
2023/04/24 03:59:10;;;;;;;8.60;6.15;;;9.40;99.90;;;;;;5056617;28;20041;-57
2023/04/24 04:01:37;;;;;;;10.23;7.82;;;9.50;99.90;;;;;;5057619;28;20047;-58
2023/04/24 04:04:06;;;;;;;9.43;7.78;;;9.50;99.90;;;;;;5055762;28;20031;-58
2023/04/24 04:06:32;;;;;;;10.18;7.53;;;9.50;99.90;;;;;;5056616;28;20037;-58
2023/04/24 04:08:58;;;;;;;11.32;7.28;;;9.50;99.90;;;;;;5055827;28;20040;-57
2023/04/24 04:11:25;;;;;;;8.85;6.97;;;9.50;99.90;;;;;;5055566;28;20390;-58
2023/04/24 04:13:50;;;;;;;12.10;8.02;;;9.50;99.90;;;;;;5053717;28;20854;-56
2023/04/24 04:16:17;;;;;;;13.20;7.35;;;9.50;99.90;;;;;;5060291;28;20064;-58
2023/04/24 04:18:43;;;;;;;10.30;7.68;;;9.50;99.90;;;;;;5058835;28;20040;-57
2023/04/24 04:21:09;;;;;;;9.32;7.25;;;9.50;99.90;;;;;;5059070;28;20040;-57
2023/04/24 04:23:34;;;;;;;8.90;6.78;;;9.50;99.90;;;;;;5057409;28;20024;-57
2023/04/24 04:26:01;;;;;;;8.05;7.20;;;9.50;99.90;;;;;;5058414;28;20115;-57
2023/04/24 04:28:26;;;;;;;7.60;6.88;;;9.50;99.90;;;;;;5057858;28;20021;-57
2023/04/24 04:30:55;;;;;;;7.40;6.22;;;9.50;99.90;;;;;;5058143;28;20518;-58
2023/04/24 04:33:21;;;;;;;9.18;7.18;;;9.50;99.90;;;;;;5058864;28;20120;-57
2023/04/24 04:35:51;;;;;;;7.05;6.40;;;9.50;99.90;;;;;;5058117;28;20029;-57
2023/04/24 04:38:18;;;;;;;8.57;6.80;;;9.50;99.90;;;;;;5060489;28;20052;-57
2023/04/24 04:40:44;;;;;;;7.43;6.68;;;9.50;99.90;;;;;;5057340;28;20143;-57
2023/04/24 04:43:10;;;;;;;8.10;6.43;;;9.40;99.90;;;;;;5060245;28;20024;-59
2023/04/24 04:45:38;;;;;;;7.32;6.05;;;9.50;99.90;;;;;;5058351;28;20040;-58
2023/04/24 04:48:05;;;;;;;8.13;6.82;;;9.50;99.90;;;;;;5056788;28;20408;-58
2023/04/24 04:50:31;;;;;;;7.18;6.47;;;9.50;99.90;;;;;;5056723;28;20033;-58
2023/04/24 04:52:57;;;;;;;9.20;6.63;;;9.50;99.90;;;;;;5058455;28;20043;-59
2023/04/24 04:55:22;;;;;;;10.38;7.30;;;9.50;99.90;;;;;;5061787;28;20020;-59
2023/04/24 04:57:48;;;;;;;8.77;6.93;;;9.50;99.90;;;;;;5062294;28;20032;-57
2023/04/24 05:00:14;;;;;;;7.30;6.60;;;9.60;99.90;;;;;;5058990;28;20132;-58
2023/04/24 05:02:40;;;;;;;8.00;7.10;;;9.60;99.90;;;;;;5060809;28;20496;-58
2023/04/24 05:05:07;;;;;;;7.70;7.00;;;9.70;99.90;;;;;;5062419;28;20036;-58
2023/04/24 05:07:32;;;;;;;6.70;6.10;;;9.80;99.90;;;;;;5058758;28;20029;-59
2023/04/24 05:09:58;;;;;;;7.47;5.88;;;9.90;99.90;;;;;;5058194;28;20071;-58
2023/04/24 05:12:24;;;;;;;13.45;8.05;;;10.00;99.90;;;;;;5038980;28;20524;-59
2023/04/24 05:14:49;;;;;;;7.43;6.70;;;10.10;99.90;;;;;;5061478;28;20115;-58
2023/04/24 05:17:16;;;;;;;7.43;5.88;;;10.10;99.90;;;;;;5054580;28;20059;-58
2023/04/24 05:19:41;;;;;;;6.22;5.57;;;10.20;99.90;;;;;;5059033;28;20108;-57
2023/04/24 05:22:09;;;;;;;6.70;4.97;;;10.30;99.90;;;;;;5059466;28;20108;-57
2023/04/24 05:24:35;;;;;;;6.28;5.13;;;10.30;99.90;;;;;;5058240;28;20052;-58
2023/04/24 05:27:02;;;;;;;13.57;4.60;;;10.30;99.90;;;;;;5059876;28;20032;-58
2023/04/24 05:29:30;;;;;;;6.22;4.85;;;10.40;99.90;;;;;;5056899;28;20025;-58
2023/04/24 05:31:56;;;;;;;5.25;4.53;;;10.40;99.90;;;;;;5058082;28;20156;-58
2023/04/24 05:34:22;;;;;;;5.35;4.10;;;10.40;99.90;;;;;;5059022;28;20436;-58
2023/04/24 05:36:48;;;;;;;4.78;3.92;;;10.40;99.90;;;;;;5057714;28;20020;-57
2023/04/24 05:39:14;;;;;;;6.55;4.18;;;10.50;99.90;;;;;;5058840;28;20504;-57
2023/04/24 05:41:40;;;;;;;6.78;3.80;;;10.50;99.90;;;;;;5058677;28;20068;-57
2023/04/24 05:44:06;;;;;;;6.70;4.35;;;10.60;99.90;;;;;;5061779;28;20208;-59
2023/04/24 05:46:31;;;;;;;3.63;3.28;;;10.70;99.90;;;;;;5059316;28;20031;-58
2023/04/24 05:48:57;;;;;;;5.00;3.33;;;10.80;99.90;;;;;;5061418;28;20017;-58
2023/04/24 05:51:23;;;;;;;3.10;2.80;;;10.80;99.90;;;;;;5062937;28;20045;-58
2023/04/24 05:53:49;;;;;;;6.72;3.92;;;10.90;99.90;;;;;;5061067;28;20042;-57
2023/04/24 05:56:15;;;;;;;4.18;3.13;;;10.90;99.90;;;;;;5059429;28;20040;-58
2023/04/24 05:58:41;;;;;;;3.03;2.33;;;11.00;99.90;;;;;;5057829;28;20028;-58
2023/04/24 06:01:06;;;;;;;3.65;2.08;;;11.00;99.90;;;;;;5059612;28;20025;-57
2023/04/24 06:03:32;;;;;;;6.43;2.35;;;11.10;99.90;;;;;;5060421;28;20111;-57
2023/04/24 06:05:58;;;;;;;2.17;1.98;;;11.30;99.90;;;;;;5059222;28;20039;-58
2023/04/24 06:08:24;;;;;;;4.57;2.40;;;11.40;99.90;;;;;;5045963;28;20128;-57
2023/04/24 06:10:49;;;;;;;3.17;1.65;;;11.50;99.90;;;;;;5059155;28;20032;-57
2023/04/24 06:13:15;;;;;;;2.88;1.40;;;11.60;99.90;;;;;;5060674;28;20496;-58
2023/04/24 06:15:41;;;;;;;3.13;1.98;;;11.70;99.90;;;;;;5059466;28;20039;-58
2023/04/24 06:18:09;;;;;;;4.20;1.42;;;11.80;99.90;;;;;;5061690;28;20056;-58
2023/04/24 06:20:35;;;;;;;2.60;1.38;;;11.90;99.90;;;;;;5061040;28;20028;-57
2023/04/24 06:23:01;;;;;;;2.70;1.20;;;12.00;99.90;;;;;;5057119;28;20044;-58
2023/04/24 06:25:27;;;;;;;2.03;1.02;;;12.00;99.90;;;;;;5060098;28;20143;-59
2023/04/24 06:27:53;;;;;;;2.78;1.30;;;12.00;99.90;;;;;;5059146;28;20025;-59
2023/04/24 06:30:19;;;;;;;1.25;0.98;;;11.90;99.90;;;;;;5059598;28;20602;-60
2023/04/24 06:32:45;;;;;;;2.08;1.00;;;11.90;99.90;;;;;;5059856;28;20041;-57
2023/04/24 06:35:12;;;;;;;2.42;0.93;;;11.90;99.90;;;;;;5062532;28;20040;-59
2023/04/24 06:37:41;;;;;;;4.65;1.20;;;12.10;99.90;;;;;;5059624;28;20032;-59
2023/04/24 06:40:07;;;;;;;1.35;0.80;;;12.10;99.90;;;;;;5060776;28;20410;-57
2023/04/24 06:42:33;;;;;;;3.75;1.15;;;12.20;99.90;;;;;;5026154;28;20037;-58
2023/04/24 06:44:59;;;;;;;1.90;1.10;;;12.10;99.90;;;;;;5055975;28;20021;-58
2023/04/24 06:47:24;;;;;;;4.07;1.10;;;11.90;99.90;;;;;;5057716;28;20029;-57
2023/04/24 06:49:52;;;;;;;1.40;1.02;;;11.80;99.90;;;;;;5058816;28;20043;-57
2023/04/24 06:52:18;;;;;;;5.15;0.98;;;11.80;99.90;;;;;;5058015;28;20096;-58
2023/04/24 06:54:44;;;;;;;3.65;0.90;;;11.80;99.90;;;;;;5058369;28;20060;-58
2023/04/24 06:57:10;;;;;;;1.40;1.00;;;11.80;99.90;;;;;;5056031;28;20192;-58
2023/04/24 06:59:36;;;;;;;1.65;0.90;;;12.00;99.90;;;;;;5055504;28;20033;-58
2023/04/24 07:02:02;;;;;;;2.15;1.05;;;12.10;99.90;;;;;;5037094;28;20040;-59
2023/04/24 07:04:28;;;;;;;1.90;0.80;;;12.00;99.90;;;;;;5056932;28;20528;-58
2023/04/24 07:06:55;;;;;;;1.48;0.60;;;12.00;99.90;;;;;;5036222;28;20029;-60
2023/04/24 07:09:21;;;;;;;2.63;1.00;;;11.90;99.90;;;;;;5056090;28;20512;-58
2023/04/24 07:11:48;;;;;;;1.90;0.77;;;11.90;99.90;;;;;;5057753;28;20068;-58
2023/04/24 07:14:13;;;;;;;2.53;0.65;;;12.00;99.90;;;;;;5055647;28;20041;-60
2023/04/24 07:16:39;;;;;;;0.98;0.65;;;12.10;99.90;;;;;;5052416;28;20075;-58
2023/04/24 07:19:05;;;;;;;2.25;0.80;;;12.40;99.90;;;;;;5059850;28;20524;-58
2023/04/24 07:21:31;;;;;;;2.30;0.70;;;12.50;99.90;;;;;;5054657;28;20563;-58
2023/04/24 07:23:58;;;;;;;1.45;0.60;;;12.60;99.90;;;;;;5055100;28;20029;-58
2023/04/24 07:26:24;;;;;;;0.77;0.50;;;12.60;99.90;;;;;;5057962;28;20112;-58
2023/04/24 07:28:49;;;;;;;0.80;0.70;;;12.50;99.90;;;;;;5057684;28;20556;-58
2023/04/24 07:31:15;;;;;;;1.33;0.50;;;12.60;99.90;;;;;;5058266;28;20477;-58
2023/04/24 07:33:41;;;;;;;0.82;0.65;;;12.60;99.90;;;;;;5054664;28;20025;-58
2023/04/24 07:36:07;;;;;;;1.10;0.63;;;12.70;99.90;;;;;;5055086;28;20039;-58
2023/04/24 07:38:32;;;;;;;1.17;0.55;;;12.70;99.90;;;;;;5055505;28;20123;-60
2023/04/24 07:40:58;;;;;;;0.75;0.60;;;12.80;99.90;;;;;;5057177;28;20029;-59
2023/04/24 07:43:24;;;;;;;2.42;0.70;;;12.80;99.90;;;;;;5056347;28;20021;-57
2023/04/24 07:45:52;;;;;;;2.13;0.60;;;12.70;99.90;;;;;;5054661;28;20039;-58
2023/04/24 07:48:18;;;;;;;0.68;0.60;;;12.70;99.90;;;;;;5055365;28;20124;-58
2023/04/24 07:50:44;;;;;;;2.17;0.80;;;12.80;99.90;;;;;;5057558;28;20131;-58
2023/04/24 07:53:10;;;;;;;1.50;0.77;;;12.90;99.90;;;;;;5056889;28;20036;-58
2023/04/24 07:55:36;;;;;;;0.77;0.57;;;12.90;99.90;;;;;;5057126;28;20515;-58
2023/04/24 07:58:01;;;;;;;1.02;0.70;;;12.90;99.90;;;;;;5056214;28;20033;-58
2023/04/24 08:00:27;;;;;;;2.00;0.98;;;12.80;99.90;;;;;;5054950;28;20064;-58
2023/04/24 08:02:53;;;;;;;1.08;0.80;;;12.80;99.90;;;;;;5053716;28;20630;-58
2023/04/24 08:05:19;;;;;;;0.80;0.60;;;12.70;99.90;;;;;;5056744;28;20052;-58
2023/04/24 08:07:48;;;;;;;0.80;0.80;;;12.70;99.90;;;;;;5057147;28;20025;-59
2023/04/24 08:10:14;;;;;;;0.95;0.60;;;12.90;99.90;;;;;;5058342;28;20132;-57
2023/04/24 08:12:41;;;;;;;2.35;0.80;;;12.90;99.90;;;;;;5057857;28;20029;-59
2023/04/24 08:15:07;;;;;;;2.05;0.65;;;13.00;99.90;;;;;;5055820;28;20025;-58
2023/04/24 08:17:35;;;;;;;3.03;0.70;;;13.10;99.90;;;;;;5057822;28;20408;-59
2023/04/24 08:20:01;;;;;;;1.17;0.70;;;13.10;99.90;;;;;;5054111;28;20516;-58
2023/04/24 08:22:27;;;;;;;2.60;0.73;;;13.20;99.90;;;;;;5054487;28;20072;-59
2023/04/24 08:24:54;;;;;;;0.95;0.73;;;13.30;99.90;;;;;;5054036;28;20051;-58
2023/04/24 08:27:19;;;;;;;1.73;0.90;;;13.40;99.90;;;;;;5053696;28;20520;-58
2023/04/24 08:29:45;;;;;;;1.23;0.90;;;13.10;99.90;;;;;;5056751;28;20056;-58
2023/04/24 08:32:10;;;;;;;1.15;0.90;;;12.90;99.90;;;;;;5059894;28;20037;-58
2023/04/24 08:34:36;;;;;;;2.38;1.00;;;12.80;99.90;;;;;;5058280;28;20491;-58
2023/04/24 08:37:02;;;;;;;1.92;0.90;;;12.70;99.90;;;;;;5059166;28;20044;-57
2023/04/24 08:39:28;;;;;;;3.28;0.95;;;12.70;99.90;;;;;;5057834;28;20029;-59
2023/04/24 08:41:55;;;;;;;1.00;0.90;;;12.60;99.90;;;;;;5059800;28;20024;-58
2023/04/24 08:44:21;;;;;;;1.00;0.90;;;12.60;99.90;;;;;;5059413;28;20036;-58
2023/04/24 08:46:48;;;;;;;1.88;0.93;;;12.70;99.90;;;;;;5057394;28;20029;-59
2023/04/24 08:49:18;;;;;;;1.00;0.90;;;12.80;99.90;;;;;;5059633;28;20125;-58
2023/04/24 08:51:44;;;;;;;1.25;0.90;;;12.90;99.90;;;;;;5059082;28;20033;-58
2023/04/24 08:54:12;;;;;;;2.20;1.10;;;12.90;99.90;;;;;;5059314;28;20762;-59
2023/04/24 08:56:40;;;;;;;1.88;1.00;;;12.90;99.90;;;;;;5058921;28;20041;-57
2023/04/24 08:59:06;;;;;;;1.60;1.00;;;12.80;99.90;;;;;;5059873;28;20033;-59
2023/04/24 09:01:35;;;;;;;1.20;0.93;;;12.70;99.90;;;;;;5061526;28;20028;-58
2023/04/24 09:04:03;;;;;;;1.42;1.10;;;12.60;99.90;;;;;;5060432;28;20025;-58
2023/04/24 09:06:30;;;;;;;1.42;1.00;;;12.80;99.90;;;;;;5058312;28;20140;-56
2023/04/24 09:09:00;;;;;;;2.08;1.00;;;13.00;99.90;;;;;;5058606;28;20025;-58
2023/04/24 09:11:26;;;;;;;2.47;1.10;;;13.20;99.90;;;;;;5057242;28;20029;-59
2023/04/24 09:13:53;;;;;;;1.95;1.63;;;13.20;99.90;;;;;;5059153;28;20032;-58
2023/04/24 09:16:20;;;;;;;1.45;1.10;;;13.10;99.90;;;;;;5055661;28;20481;-59
2023/04/24 09:18:45;;;;;;;1.05;0.90;;;13.00;99.90;;;;;;5054918;28;20029;-59
2023/04/24 09:21:11;;;;;;;1.63;1.20;;;13.00;99.90;;;;;;5058661;28;20029;-58
2023/04/24 09:23:38;;;;;;;0.95;0.95;;;12.80;98.70;;;;;;5057185;28;20036;-58
2023/04/24 09:26:06;;;;;;;1.13;1.00;;;12.70;99.90;;;;;;5055397;28;20027;-58
2023/04/24 09:28:40;;;;;;;1.00;0.90;;;12.60;99.40;;;;;;5060478;28;20044;-58
2023/04/24 09:31:06;;;;;;;0.93;0.82;;;12.50;99.90;;;;;;5063556;28;20032;-58
2023/04/24 09:33:32;;;;;;;1.50;1.08;;;12.50;99.90;;;;;;5056392;28;20036;-57
2023/04/24 09:35:59;;;;;;;1.40;0.90;;;12.60;99.90;;;;;;5059652;28;20412;-59
2023/04/24 09:38:36;;;;;;;2.90;1.02;;;12.80;99.90;;;;;;5057530;28;20060;-58
2023/04/24 09:41:07;;;;;;;2.67;1.20;;;12.90;99.90;;;;;;5057737;28;20033;-59
2023/04/24 09:43:34;;;;;;;1.17;1.08;;;13.20;99.90;;;;;;5059385;28;20029;-58
2023/04/24 09:46:07;;;;;;;2.83;0.93;;;13.80;99.90;;;;;;5058681;28;20507;-58
2023/04/24 09:48:35;;;;;;;1.88;1.10;;;14.20;99.90;;;;;;5056413;28;20035;-58
2023/04/24 09:51:03;;;;;;;1.40;1.30;;;14.20;94.00;;;;;;5057069;28;20024;-58
2023/04/24 09:53:30;;;;;;;1.25;1.10;;;14.50;95.20;;;;;;5057729;28;20041;-58
2023/04/24 09:55:56;;;;;;;1.38;1.00;;;14.70;93.00;;;;;;5058632;28;20025;-60
2023/04/24 09:58:28;;;;;;;1.35;1.20;;;14.60;92.40;;;;;;5058173;28;20120;-59
2023/04/24 10:00:56;;;;;;;1.15;1.00;;;14.50;93.30;;;;;;5060314;28;20031;-59
2023/04/24 10:03:25;;;;;;;3.30;1.00;;;14.40;90.60;;;;;;5058819;28;20025;-58
2023/04/24 10:05:52;;;;;;;1.10;1.00;;;14.20;93.40;;;;;;5057531;28;20036;-58
2023/04/24 10:08:18;;;;;;;1.48;1.20;;;14.20;92.90;;;;;;5056371;28;20025;-59
2023/04/24 10:10:46;;;;;;;1.67;0.90;;;14.50;94.10;;;;;;5059960;28;20079;-60
2023/04/24 10:13:14;;;;;;;0.85;0.70;;;14.80;93.10;;;;;;5057001;28;20017;-59
2023/04/24 10:15:41;;;;;;;2.40;0.93;;;14.90;92.80;;;;;;5044146;28;20020;-59
2023/04/24 10:18:08;;;;;;;0.80;0.80;;;14.90;90.10;;;;;;5054673;28;20029;-59
2023/04/24 10:20:36;;;;;;;2.58;1.20;;;14.70;83.80;;;;;;5056453;28;20675;-59
2023/04/24 10:23:02;;;;;;;1.45;1.10;;;14.30;86.50;;;;;;5056648;28;20040;-58
2023/04/24 10:25:36;;;;;;;1.83;1.00;;;13.90;88.40;;;;;;5060677;28;20025;-58
2023/04/24 10:28:03;;;;;;;0.85;0.85;;;13.50;92.80;;;;;;5057544;28;20036;-59
2023/04/24 10:30:36;;;;;;;1.40;0.80;;;13.30;93.40;;;;;;5037845;28;20036;-58
2023/04/24 10:33:07;;;;;;;1.48;0.95;;;13.20;96.10;;;;;;5054013;28;20040;-59
2023/04/24 10:35:37;;;;;;;1.40;0.88;;;13.20;94.30;;;;;;5060640;28;20033;-59
2023/04/24 10:38:06;;;;;;;1.45;1.20;;;13.30;93.70;;;;;;5056097;28;20421;-58
2023/04/24 10:40:34;;;;;;;1.05;0.95;;;13.30;92.10;;;;;;5039972;28;20044;-58
2023/04/24 10:43:06;;;;;;;0.85;0.80;;;13.30;95.20;;;;;;5056205;28;20033;-59
2023/04/24 10:45:31;;;;;;;;;;;13.40;94.90;;;;;;5056340;28;20111;-58
2023/04/24 10:47:58;;;;;;;1.10;1.00;;;13.40;93.40;;;;;;5057938;28;20141;-58
2023/04/24 10:50:27;;;;;;;2.20;1.15;;;13.50;94.70;;;;;;5057438;28;20519;-59
2023/04/24 10:52:54;;;;;;;4.25;1.00;;;13.50;94.90;;;;;;5058990;28;20048;-59
2023/04/24 10:55:46;;;;;;;1.90;1.50;;;13.50;95.40;;;;;;5042342;28;20480;-58
2023/04/24 10:58:12;;;;;;;2.40;1.20;;;13.40;97.10;;;;;;5027469;28;20076;-58
2023/04/24 11:00:41;;;;;;;2.25;1.15;;;13.20;95.00;;;;;;5057206;28;20049;-60
2023/04/24 11:03:23;;;;;;;4.20;1.20;;;12.90;96.40;;;;;;5057089;28;20112;-57
2023/04/24 11:05:55;;;;;;;2.17;1.25;;;12.70;99.90;;;;;;5055283;28;20071;-59
2023/04/24 11:08:28;;;;;;;3.15;1.40;;;12.50;99.90;;;;;;5058574;28;20033;-58
2023/04/24 11:10:58;;;;;;;1.50;1.20;;;12.30;99.90;;;;;;5038588;28;20036;-59
2023/04/24 11:13:25;;;;;;;1.80;1.13;;;12.20;99.90;;;;;;5057554;28;20029;-59
2023/04/24 11:16:28;;;;;;;1.48;0.98;;;12.30;99.90;;;;;;5057850;28;20037;-60
2023/04/24 11:19:09;;;;;;;0.90;0.90;;;12.50;96.30;;;;;;5055636;28;20032;-59
2023/04/24 11:22:01;;;;;;;2.00;0.75;;;12.90;95.30;;;;;;5054006;28;20075;-59
2023/04/24 11:24:28;;;;;;;2.67;0.70;;;13.20;94.50;;;;;;5046892;28;20040;-59
2023/04/24 11:26:56;;;;;;;1.02;0.60;;;13.60;96.10;;;;;;5057020;28;20428;-58
2023/04/24 11:29:23;;;;;;;1.33;0.65;;;13.80;95.50;;;;;;5054365;28;20560;-58
2023/04/24 11:31:51;;;;;;;1.52;0.70;;;14.10;90.70;;;;;;5057827;28;20039;-58
2023/04/24 11:34:17;;;;;;;0.68;0.68;;;14.50;86.10;;;;;;5058868;28;20033;-59
2023/04/24 11:36:45;;;;;;;0.70;0.63;;;14.50;89.40;;;;;;5053636;28;20124;-58
2023/04/24 11:39:11;;;;;;;0.75;0.75;;;14.60;93.10;;;;;;5058770;28;20047;-59
2023/04/24 11:41:37;;;;;;;0.70;0.70;;;14.80;82.40;;;;;;5055478;28;20033;-59
2023/04/24 11:44:05;;;;;;;0.85;0.70;;;14.80;86.30;;;;;;5057309;28;20043;-59
2023/04/24 11:46:31;;;;;;;2.42;0.90;;;14.80;79.40;;;;;;5056152;28;20116;-59
2023/04/24 11:48:57;;;;;;;0.90;0.70;;;14.60;82.10;;;;;;5055953;28;20014;-59
2023/04/24 11:51:27;;;;;;;1.23;0.85;;;14.40;90.50;;;;;;5056619;28;20045;-59
2023/04/24 11:53:54;;;;;;;0.80;0.80;;;14.10;83.50;;;;;;5057045;28;20063;-58
2023/04/24 11:56:24;;;;;;;2.72;0.70;;;13.80;83.00;;;;;;5057273;28;20534;-58
2023/04/24 11:58:54;;;;;;;1.88;0.90;;;13.40;89.50;;;;;;5055645;28;20053;-58
2023/04/24 12:01:20;;;;;;;0.80;0.80;;;13.00;90.80;;;;;;5054295;28;20020;-59
2023/04/24 12:03:51;;;;;;;0.80;0.80;;;12.70;93.40;;;;;;5055869;28;20025;-59
2023/04/24 12:06:17;;;;;;;1.30;1.20;;;12.50;95.20;;;;;;5060527;28;20059;-58
2023/04/24 12:08:47;;;;;;;1.13;1.02;;;12.40;96.00;;;;;;5059416;28;20035;-58
2023/04/24 12:11:16;;;;;;;1.45;1.20;;;12.20;97.70;;;;;;5059697;28;20060;-59
2023/04/24 12:13:42;;;;;;;2.85;1.30;;;12.10;99.50;;;;;;5059928;28;20451;-58
2023/04/24 12:16:07;;;;;;;1.58;1.30;;;11.90;99.90;;;;;;5056794;28;20028;-59
2023/04/24 12:18:33;;;;;;;1.40;1.25;;;11.80;99.90;;;;;;5059732;28;20033;-57
2023/04/24 12:21:21;;;;;;;1.35;1.25;;;11.70;99.90;;;;;;5060727;28;20021;-58
2023/04/24 12:23:48;;;;;;;1.92;1.40;;;11.80;99.90;;;;;;5062007;28;20562;-58
2023/04/24 12:26:20;;;;;;;1.23;1.10;;;12.10;99.90;;;;;;5059392;28;20205;-58
2023/04/24 12:28:51;;;;;;;2.83;1.60;;;12.30;99.90;;;;;;5058644;28;20025;-58
2023/04/24 12:31:17;;;;;;;3.05;1.38;;;12.50;99.90;;;;;;5062233;28;20051;-60
2023/04/24 12:33:43;;;;;;;1.50;1.40;;;12.80;99.90;;;;;;5057127;28;20120;-59
2023/04/24 12:36:12;;;;;;;2.75;1.38;;;12.90;99.90;;;;;;5058089;28;20063;-58
2023/04/24 12:38:41;;;;;;;2.53;1.40;;;13.00;95.70;;;;;;5058710;28;20508;-58
2023/04/24 12:41:09;;;;;;;1.75;1.10;;;12.80;95.60;;;;;;5058562;28;20070;-60
2023/04/24 12:43:36;;;;;;;3.13;1.77;;;12.50;95.50;;;;;;5060944;28;20016;-57
2023/04/24 12:46:02;;;;;;;3.08;1.50;;;12.20;98.00;;;;;;5059100;28;20060;-60
2023/04/24 12:48:28;;;;;;;8.05;1.30;;;12.00;98.10;;;;;;5058734;28;20068;-57